Time;durP1;ratioP1;P1;durP2;ratioP2;P2;SDS_P1;SDS_P2;PMS_P1;PMS_P2;Temp;Humidity;BMP_temperature;BMP_pressure;BME280_temperature;BME280_humidity;BME280_pressure;Samples;Min_cycle;Max_cycle;Signal;HPM_P1;HPM_P2
2021/05/20 00:00:45;;;;;;;9.07;6.67;;;9.80;99.90;;;;;;5037742;28;20217;-86
2021/05/20 00:03:11;;;;;;;8.10;6.83;;;9.80;99.90;;;;;;5036636;28;20229;-86
2021/05/20 00:05:37;;;;;;;9.70;6.50;;;9.80;99.90;;;;;;5052445;28;20252;-86
2021/05/20 00:08:03;;;;;;;10.60;7.77;;;9.80;99.90;;;;;;5054796;28;20189;-85
2021/05/20 00:10:29;;;;;;;9.40;7.40;;;9.90;99.90;;;;;;5052625;28;20291;-87
2021/05/20 00:12:55;;;;;;;10.30;7.80;;;9.90;99.90;;;;;;5052369;28;20557;-86
2021/05/20 00:15:21;;;;;;;11.83;7.90;;;9.90;99.90;;;;;;5052953;28;20671;-85
2021/05/20 00:17:47;;;;;;;13.87;8.13;;;9.90;99.90;;;;;;5038092;28;20186;-86
2021/05/20 00:20:13;;;;;;;9.50;7.07;;;9.90;99.90;;;;;;5054329;28;21135;-85
2021/05/20 00:22:39;;;;;;;10.27;7.30;;;9.90;99.90;;;;;;5051235;28;20232;-85
2021/05/20 00:25:06;;;;;;;6.93;5.63;;;9.90;99.90;;;;;;5037055;28;21022;-84
2021/05/20 00:27:32;;;;;;;10.23;8.00;;;9.90;99.90;;;;;;5044413;28;20315;-86
2021/05/20 00:29:58;;;;;;;9.73;6.27;;;9.90;99.90;;;;;;5052611;28;20225;-86
2021/05/20 00:32:24;;;;;;;10.13;7.07;;;9.90;99.90;;;;;;5023485;28;20233;-86
2021/05/20 00:34:50;;;;;;;12.33;8.03;;;9.90;99.90;;;;;;5057463;28;20209;-87
2021/05/20 00:37:17;;;;;;;9.20;7.37;;;9.90;99.90;;;;;;5055667;28;20721;-86
2021/05/20 00:39:43;;;;;;;11.00;8.57;;;9.90;99.90;;;;;;5047113;28;20297;-86
2021/05/20 00:42:10;;;;;;;12.93;9.17;;;9.90;99.90;;;;;;5058758;28;20272;-86
2021/05/20 00:44:56;;;;;;;11.83;7.43;;;10.00;99.90;;;;;;5019787;28;20253;-87
2021/05/20 00:47:26;;;;;;;9.20;7.10;;;10.00;99.90;;;;;;5050605;28;20201;-87
2021/05/20 00:49:52;;;;;;;8.93;6.23;;;9.90;99.90;;;;;;5065154;28;20225;-86
2021/05/20 00:52:18;;;;;;;10.17;7.50;;;10.00;99.90;;;;;;5046433;28;20217;-87
2021/05/20 00:54:48;;;;;;;8.43;6.47;;;9.90;99.90;;;;;;5049551;28;20931;-85
2021/05/20 00:57:15;;;;;;;8.33;6.33;;;9.90;99.90;;;;;;5065544;28;20646;-85
2021/05/20 00:59:41;;;;;;;8.80;6.37;;;9.90;99.90;;;;;;5045322;28;20186;-86
2021/05/20 01:02:06;;;;;;;8.37;5.83;;;9.90;99.90;;;;;;5047171;28;20209;-86
2021/05/20 01:04:32;;;;;;;6.07;5.47;;;9.80;99.90;;;;;;5046550;28;20303;-86
2021/05/20 01:06:58;;;;;;;8.40;6.90;;;9.80;99.90;;;;;;5013728;28;20273;-86
2021/05/20 01:09:24;;;;;;;9.70;7.60;;;9.80;99.90;;;;;;5029656;28;20236;-85
2021/05/20 01:11:49;;;;;;;8.53;6.60;;;9.80;99.90;;;;;;5016495;28;21026;-86
2021/05/20 01:14:15;;;;;;;7.13;6.00;;;9.70;99.90;;;;;;5049633;28;20182;-86
2021/05/20 01:16:41;;;;;;;8.60;6.73;;;9.70;99.90;;;;;;5049664;28;20213;-86
2021/05/20 01:19:07;;;;;;;8.20;6.03;;;9.70;99.90;;;;;;5042187;28;20224;-84
2021/05/20 01:21:34;;;;;;;7.83;4.63;;;9.70;99.90;;;;;;5053993;28;20705;-86
2021/05/20 01:24:00;;;;;;;7.13;5.37;;;9.70;99.90;;;;;;5053229;28;20213;-86
2021/05/20 01:26:28;;;;;;;6.57;5.23;;;9.70;99.90;;;;;;5035220;28;20222;-86
2021/05/20 01:28:54;;;;;;;6.27;5.70;;;9.70;99.90;;;;;;5052357;28;20221;-86
2021/05/20 01:31:19;;;;;;;3.93;3.33;;;9.60;99.90;;;;;;5054375;28;20225;-87
2021/05/20 01:33:45;;;;;;;6.13;5.40;;;9.60;99.90;;;;;;5035911;28;20485;-86
2021/05/20 01:36:11;;;;;;;9.83;6.53;;;9.60;99.90;;;;;;5055409;28;20733;-86
2021/05/20 01:41:08;;;;;;;7.33;6.60;;;9.70;99.90;;;;;;5053102;28;20209;-86
2021/05/20 01:43:35;;;;;;;12.03;6.97;;;9.80;99.90;;;;;;5071056;28;20293;-86
2021/05/20 01:46:02;;;;;;;6.63;5.53;;;9.80;99.90;;;;;;5051085;28;20233;-86
2021/05/20 01:48:35;;;;;;;12.30;7.10;;;9.80;99.90;;;;;;5050554;28;20220;-86
2021/05/20 01:51:12;;;;;;;11.87;8.13;;;9.80;99.90;;;;;;5052338;28;20221;-86
2021/05/20 01:53:40;;;;;;;11.23;7.73;;;9.80;99.90;;;;;;5050773;28;20181;-87
2021/05/20 01:56:07;;;;;;;9.37;7.03;;;9.70;99.90;;;;;;5053384;28;20214;-86
2021/05/20 01:58:35;;;;;;;9.73;7.27;;;9.70;99.90;;;;;;5052949;28;20232;-87
2021/05/20 02:01:01;;;;;;;7.40;6.63;;;9.70;99.90;;;;;;5053544;28;20299;-86
2021/05/20 02:03:27;;;;;;;11.03;7.23;;;9.70;99.90;;;;;;5048799;28;20214;-87
2021/05/20 02:05:54;;;;;;;8.00;6.10;;;9.70;99.90;;;;;;5048076;28;20256;-86
2021/05/20 02:08:20;;;;;;;8.03;5.73;;;9.70;99.90;;;;;;5049686;28;20185;-87
2021/05/20 02:10:45;;;;;;;10.03;6.90;;;9.80;99.90;;;;;;5046410;28;20220;-86
2021/05/20 02:13:11;;;;;;;8.00;7.30;;;9.80;99.90;;;;;;5046460;28;20314;-87
2021/05/20 02:15:37;;;;;;;8.83;6.03;;;9.80;99.90;;;;;;5066458;28;20225;-87
2021/05/20 02:18:06;;;;;;;8.43;7.07;;;9.80;99.90;;;;;;5019579;28;20613;-86
2021/05/20 02:20:34;;;;;;;7.83;6.43;;;9.70;99.90;;;;;;5034688;28;20224;-87
2021/05/20 02:23:00;;;;;;;7.23;6.47;;;9.70;99.90;;;;;;5050609;28;20181;-85
2021/05/20 02:25:26;;;;;;;9.07;6.27;;;9.70;99.90;;;;;;5050280;28;20230;-87
2021/05/20 02:27:52;;;;;;;7.17;5.83;;;9.70;99.90;;;;;;5034651;28;20300;-87
2021/05/20 02:30:18;;;;;;;15.07;6.63;;;9.70;99.90;;;;;;5048916;28;20700;-86
2021/05/20 02:32:44;;;;;;;11.00;6.73;;;9.80;99.90;;;;;;5050605;28;20218;-87
2021/05/20 02:35:11;;;;;;;8.33;6.60;;;9.80;99.90;;;;;;5036898;28;20312;-87
2021/05/20 02:37:37;;;;;;;10.50;7.17;;;9.90;99.90;;;;;;5050956;28;20270;-86
2021/05/20 02:40:05;;;;;;;8.53;5.60;;;9.90;99.90;;;;;;5050951;28;20217;-86
2021/05/20 02:42:32;;;;;;;10.17;7.63;;;10.00;99.90;;;;;;5051685;28;20229;-87
2021/05/20 02:45:00;;;;;;;8.93;7.67;;;10.00;99.90;;;;;;5018921;28;20232;-87
2021/05/20 02:47:26;;;;;;;8.47;5.87;;;10.00;99.90;;;;;;5051892;28;20658;-86
2021/05/20 02:49:52;;;;;;;9.27;6.30;;;10.00;99.90;;;;;;5049072;28;20635;-87
2021/05/20 02:52:18;;;;;;;16.47;8.53;;;10.00;99.90;;;;;;5032843;28;20269;-86
2021/05/20 02:54:44;;;;;;;9.20;8.00;;;9.90;99.90;;;;;;5050638;28;20256;-85
2021/05/20 02:57:10;;;;;;;11.97;7.30;;;9.80;99.90;;;;;;5051922;28;20218;-86
2021/05/20 02:59:36;;;;;;;10.27;6.93;;;9.80;99.90;;;;;;5050142;28;20275;-86
2021/05/20 03:02:07;;;;;;;10.47;7.27;;;9.80;99.90;;;;;;5052295;28;20213;-88
2021/05/20 03:04:37;;;;;;;8.37;6.80;;;9.80;99.90;;;;;;5049218;28;20233;-87
2021/05/20 03:07:04;;;;;;;11.30;7.70;;;9.80;99.90;;;;;;5050782;28;21061;-86
2021/05/20 03:09:30;;;;;;;11.20;7.57;;;9.70;99.90;;;;;;5048640;28;20234;-87
2021/05/20 03:11:59;;;;;;;9.40;6.60;;;9.60;99.90;;;;;;5051064;28;20247;-86
2021/05/20 03:14:26;;;;;;;9.87;6.90;;;9.50;99.90;;;;;;5068589;28;20194;-87
2021/05/20 03:16:52;;;;;;;8.17;5.60;;;9.40;99.90;;;;;;5050905;28;20221;-87
2021/05/20 03:19:18;;;;;;;8.63;6.73;;;9.30;99.90;;;;;;5062840;28;20236;-86
2021/05/20 03:21:44;;;;;;;8.50;6.80;;;9.20;99.90;;;;;;5052848;28;20225;-87
2021/05/20 03:24:10;;;;;;;10.43;7.20;;;9.20;99.90;;;;;;5044644;28;20220;-87
2021/05/20 03:26:36;;;;;;;7.97;6.30;;;9.20;99.90;;;;;;5057547;28;20715;-87
2021/05/20 03:29:02;;;;;;;10.63;7.30;;;9.20;99.90;;;;;;5058332;28;20726;-87
2021/05/20 03:31:28;;;;;;;10.03;7.23;;;9.20;99.90;;;;;;5056549;28;20213;-87
2021/05/20 03:33:54;;;;;;;9.80;6.60;;;9.10;99.90;;;;;;5054230;28;20253;-87
2021/05/20 03:36:20;;;;;;;8.83;6.33;;;9.10;99.90;;;;;;5055280;28;20297;-87
2021/05/20 03:38:45;;;;;;;10.17;7.27;;;9.10;99.90;;;;;;5037978;28;20259;-86
2021/05/20 03:41:11;;;;;;;9.80;6.43;;;9.10;99.90;;;;;;5053977;28;20544;-86
2021/05/20 03:43:37;;;;;;;8.83;6.43;;;9.10;99.90;;;;;;5051274;28;20225;-87
2021/05/20 03:46:03;;;;;;;8.87;7.03;;;9.00;99.90;;;;;;5053379;28;20221;-87
2021/05/20 03:48:30;;;;;;;8.20;6.53;;;9.00;99.90;;;;;;5059299;28;20224;-86
2021/05/20 03:50:59;;;;;;;9.37;6.73;;;8.90;99.90;;;;;;5053443;28;20629;-87
2021/05/20 03:53:30;;;;;;;7.97;5.57;;;8.90;99.90;;;;;;5053356;28;20269;-87
2021/05/20 03:56:00;;;;;;;9.07;6.37;;;8.80;99.90;;;;;;5035787;28;21024;-87
2021/05/20 03:58:29;;;;;;;6.87;5.10;;;8.90;99.90;;;;;;5050691;28;20213;-86
2021/05/20 04:00:56;;;;;;;9.30;7.20;;;8.90;99.90;;;;;;5071456;28;20213;-86
2021/05/20 04:03:25;;;;;;;10.10;6.57;;;9.00;99.90;;;;;;5051631;28;20220;-85
2021/05/20 04:05:56;;;;;;;9.33;6.43;;;9.00;99.90;;;;;;5053400;28;20366;-87
2021/05/20 04:08:22;;;;;;;8.90;6.73;;;9.00;99.90;;;;;;5056484;28;20198;-85
2021/05/20 04:10:49;;;;;;;8.23;7.43;;;9.00;99.90;;;;;;5034267;28;20217;-86
2021/05/20 04:13:30;;;;;;;9.93;6.87;;;9.00;99.90;;;;;;5051631;28;20213;-85
2021/05/20 04:15:56;;;;;;;8.17;6.47;;;9.00;99.90;;;;;;5051018;28;20657;-85
2021/05/20 04:18:23;;;;;;;11.77;6.37;;;9.10;99.90;;;;;;5051376;28;21038;-86
2021/05/20 04:20:49;;;;;;;8.53;6.13;;;9.20;99.90;;;;;;5054525;28;20573;-90
2021/05/20 04:23:16;;;;;;;8.40;6.70;;;9.30;99.90;;;;;;5055104;28;20276;-91
2021/05/20 04:25:42;;;;;;;9.27;6.67;;;9.40;99.90;;;;;;5052847;28;20238;-90
2021/05/20 04:28:08;;;;;;;8.40;5.37;;;9.50;99.90;;;;;;5052903;28;20241;-91
2021/05/20 04:30:35;;;;;;;8.80;5.87;;;9.60;99.90;;;;;;5057427;28;20213;-90
2021/05/20 04:33:01;;;;;;;8.10;5.23;;;9.70;99.90;;;;;;5070031;28;20706;-90
2021/05/20 04:35:27;;;;;;;9.60;6.27;;;9.90;99.90;;;;;;5040973;28;20189;-91
2021/05/20 04:37:52;;;;;;;8.77;7.17;;;10.00;99.90;;;;;;5038162;28;21391;-90
2021/05/20 04:40:21;;;;;;;6.67;5.97;;;10.00;99.90;;;;;;5057532;28;20676;-90
2021/05/20 04:42:47;;;;;;;7.57;6.07;;;10.00;99.90;;;;;;5039772;28;20555;-90
2021/05/20 04:45:13;;;;;;;9.40;6.83;;;10.00;99.90;;;;;;5037612;28;20697;-90
2021/05/20 04:47:39;;;;;;;7.00;5.73;;;10.10;99.90;;;;;;5055230;28;20194;-89
2021/05/20 04:50:05;;;;;;;8.53;6.60;;;10.00;99.90;;;;;;5040070;28;20553;-88
2021/05/20 04:52:31;;;;;;;7.73;6.03;;;10.10;99.90;;;;;;5074280;28;20528;-90
2021/05/20 04:54:57;;;;;;;8.23;6.33;;;10.10;99.90;;;;;;5056982;28;20231;-90
2021/05/20 04:57:23;;;;;;;6.07;5.30;;;10.30;99.90;;;;;;5038483;28;20216;-90
2021/05/20 04:59:48;;;;;;;7.83;5.23;;;10.40;99.90;;;;;;5070686;28;20258;-89
2021/05/20 05:02:14;;;;;;;8.57;6.37;;;10.50;99.90;;;;;;5056447;28;20200;-88
2021/05/20 05:04:40;;;;;;;9.30;6.63;;;10.60;99.90;;;;;;5072976;28;20229;-88
2021/05/20 05:07:06;;;;;;;6.63;5.63;;;10.70;99.90;;;;;;5054154;28;20216;-89
2021/05/20 05:09:31;;;;;;;6.27;5.20;;;10.80;99.90;;;;;;5073069;28;20346;-89
2021/05/20 05:11:57;;;;;;;8.30;6.43;;;10.80;99.90;;;;;;5052036;28;20278;-90
2021/05/20 05:14:23;;;;;;;7.83;6.03;;;11.00;99.90;;;;;;5073296;28;20192;-90
2021/05/20 05:16:49;;;;;;;9.23;5.90;;;11.60;99.90;;;;;;5052458;28;20224;-90
2021/05/20 05:19:15;;;;;;;7.00;6.03;;;13.80;99.90;;;;;;5037687;28;20213;-90
2021/05/20 05:21:41;;;;;;;8.87;5.87;;;17.10;99.90;;;;;;5044380;28;20210;-90
2021/05/20 05:24:09;;;;;;;9.77;5.23;;;20.50;99.90;;;;;;5037827;28;20213;-87
2021/05/20 05:26:35;;;;;;;6.70;4.03;;;22.50;99.90;;;;;;5049304;28;20218;-89
2021/05/20 05:29:01;;;;;;;5.13;3.80;;;24.60;99.90;;;;;;5034071;28;20182;-90
2021/05/20 05:31:27;;;;;;;5.00;3.60;;;24.80;99.90;;;;;;5034115;28;20209;-90
2021/05/20 05:33:53;;;;;;;5.50;3.73;;;24.80;99.90;;;;;;5016067;28;20321;-91
2021/05/20 05:36:20;;;;;;;7.03;4.67;;;24.80;99.90;;;;;;5050527;28;20465;-90
2021/05/20 05:38:46;;;;;;;4.07;3.60;;;25.30;99.90;;;;;;5040953;28;20234;-89
2021/05/20 05:41:12;;;;;;;4.83;3.93;;;24.50;99.90;;;;;;5031235;28;20190;-90
2021/05/20 05:43:38;;;;;;;9.30;4.20;;;25.90;99.90;;;;;;5013369;28;20232;-90
2021/05/20 05:46:04;;;;;;;4.93;3.80;;;25.20;99.90;;;;;;5033271;28;20621;-90
2021/05/20 05:48:30;;;;;;;5.37;3.70;;;25.50;99.90;;;;;;5051107;28;20484;-90
2021/05/20 05:50:57;;;;;;;4.30;3.67;;;25.60;99.80;;;;;;5049471;28;20586;-90
2021/05/20 05:53:24;;;;;;;4.13;3.73;;;26.60;98.80;;;;;;5035019;28;20234;-89
2021/05/20 05:55:50;;;;;;;3.57;3.10;;;25.20;99.70;;;;;;5053099;28;20254;-90
2021/05/20 05:58:15;;;;;;;4.97;3.60;;;25.60;99.70;;;;;;5034750;28;20236;-90
2021/05/20 06:00:41;;;;;;;5.07;3.40;;;25.30;99.90;;;;;;5025165;28;20305;-90
2021/05/20 06:03:07;;;;;;;3.43;3.13;;;26.30;99.90;;;;;;5048387;28;20234;-90
2021/05/20 06:05:32;;;;;;;3.30;2.73;;;26.00;98.60;;;;;;5050689;28;20228;-90
2021/05/20 06:07:58;;;;;;;3.73;3.43;;;25.80;99.30;;;;;;5033284;28;20186;-90
2021/05/20 06:10:24;;;;;;;3.10;2.80;;;23.00;99.90;;;;;;5049809;28;20661;-91
2021/05/20 06:12:50;;;;;;;3.83;3.40;;;20.60;99.90;;;;;;5069100;28;20609;-92
2021/05/20 06:15:19;;;;;;;3.17;2.87;;;20.50;99.90;;;;;;5051601;28;20256;-89
2021/05/20 06:17:45;;;;;;;2.50;2.30;;;22.10;99.90;;;;;;5049475;28;20197;-90
2021/05/20 06:20:11;;;;;;;2.90;2.60;;;23.40;99.90;;;;;;5034650;28;20190;-90
2021/05/20 06:22:37;;;;;;;3.23;2.50;;;24.40;99.90;;;;;;5047923;28;20282;-91
2021/05/20 06:25:04;;;;;;;3.00;2.70;;;24.10;99.90;;;;;;5049560;28;20229;-90
2021/05/20 06:27:30;;;;;;;2.97;2.77;;;25.90;99.90;;;;;;5044965;28;20357;-90
2021/05/20 06:29:57;;;;;;;2.63;2.43;;;26.10;99.90;;;;;;5034448;28;20741;-89
2021/05/20 06:32:23;;;;;;;2.90;2.00;;;24.90;98.60;;;;;;5055315;28;20197;-89
2021/05/20 06:34:49;;;;;;;5.23;2.43;;;21.60;99.90;;;;;;5036870;28;20240;-89
2021/05/20 06:37:15;;;;;;;2.67;2.43;;;18.70;99.90;;;;;;5051267;28;20223;-88
2021/05/20 06:39:41;;;;;;;3.03;2.40;;;17.20;99.90;;;;;;5035260;28;20214;-89
2021/05/20 06:42:11;;;;;;;5.37;2.47;;;16.30;99.90;;;;;;5047480;28;20222;-90
2021/05/20 06:44:40;;;;;;;2.87;2.00;;;15.90;99.90;;;;;;5050054;28;20198;-90
2021/05/20 06:47:07;;;;;;;2.33;2.13;;;15.80;99.90;;;;;;5049556;28;20995;-89
2021/05/20 06:49:33;;;;;;;3.77;1.93;;;15.20;99.90;;;;;;5047439;28;20218;-88
2021/05/20 06:51:59;;;;;;;3.33;2.27;;;16.60;99.90;;;;;;5030351;28;20239;-88
2021/05/20 06:54:24;;;;;;;4.40;2.00;;;17.10;99.90;;;;;;5051303;28;20583;-89
2021/05/20 06:56:55;;;;;;;3.33;1.80;;;18.50;99.90;;;;;;5050680;28;20687;-89
2021/05/20 07:02:05;;;;;;;2.33;2.13;;;18.50;99.90;;;;;;5049863;28;20212;-89
2021/05/20 07:04:30;;;;;;;3.43;2.50;;;19.90;99.90;;;;;;5062797;28;20315;-90
2021/05/20 07:07:03;;;;;;;2.63;2.43;;;20.90;99.90;;;;;;5046729;28;20887;-89
2021/05/20 07:09:32;;;;;;;4.33;1.93;;;20.30;99.90;;;;;;5051417;28;20253;-89
2021/05/20 07:11:59;;;;;;;2.87;1.40;;;19.80;99.90;;;;;;5047152;28;20268;-90
2021/05/20 07:14:25;;;;;;;2.03;1.70;;;19.80;99.90;;;;;;5047601;28;20239;-90
2021/05/20 07:16:51;;;;;;;1.70;1.57;;;19.30;99.90;;;;;;5050078;28;20225;-90
2021/05/20 07:19:21;;;;;;;1.53;1.43;;;21.10;99.90;;;;;;5049354;28;20624;-90
2021/05/20 07:21:47;;;;;;;2.47;2.00;;;23.10;99.90;;;;;;5048873;28;20264;-90
2021/05/20 07:24:13;;;;;;;2.67;1.70;;;25.60;99.90;;;;;;5043785;28;20263;-89
2021/05/20 07:26:39;;;;;;;2.17;1.97;;;23.20;99.90;;;;;;5023636;28;20705;-90
2021/05/20 07:29:05;;;;;;;2.90;1.50;;;20.90;99.90;;;;;;5067115;28;20194;-90
2021/05/20 07:31:32;;;;;;;1.43;1.33;;;20.30;99.90;;;;;;5062443;28;20584;-90
2021/05/20 07:33:58;;;;;;;1.83;1.67;;;19.90;99.90;;;;;;5060406;28;20236;-89
2021/05/20 07:36:23;;;;;;;2.77;2.47;;;20.90;99.90;;;;;;5051064;28;20674;-90
2021/05/20 07:38:50;;;;;;;1.90;1.80;;;23.00;99.90;;;;;;5052096;28;23421;-89
2021/05/20 07:41:16;;;;;;;1.97;1.70;;;23.60;99.90;;;;;;5071061;28;20525;-90
2021/05/20 07:43:42;;;;;;;2.03;1.83;;;24.10;99.90;;;;;;5062070;28;20312;-92
2021/05/20 07:46:10;;;;;;;2.20;2.03;;;24.30;99.90;;;;;;5055134;28;20221;-91
2021/05/20 07:48:36;;;;;;;2.90;2.20;;;25.30;99.90;;;;;;5041166;28;20222;-89
2021/05/20 07:51:03;;;;;;;2.47;1.53;;;25.90;98.80;;;;;;5033897;28;20217;-90
2021/05/20 07:53:29;;;;;;;3.15;2.78;;;25.30;98.60;;;;;;5049721;28;20575;-91
2021/05/20 07:55:54;;;;;;;3.95;2.92;;;25.70;98.80;;;;;;5030622;28;20435;-89
2021/05/20 07:58:20;;;;;;;4.47;2.40;;;25.30;98.20;;;;;;5033587;28;20274;-88
2021/05/20 08:00:46;;;;;;;2.60;2.30;;;23.90;99.10;;;;;;5061249;28;20214;-91
2021/05/20 08:03:27;;;;;;;3.50;2.20;;;24.10;99.90;;;;;;5034318;28;20212;-89
2021/05/20 08:06:13;;;;;;;2.65;2.10;;;24.40;99.80;;;;;;5063844;28;20401;-88
2021/05/20 08:11:11;;;;;;;1.70;1.60;;;24.20;99.90;;;;;;5066024;28;20186;-89
2021/05/20 08:13:37;;;;;;;4.40;2.08;;;25.70;99.90;;;;;;5048646;28;20271;-89
2021/05/20 08:16:04;;;;;;;2.47;2.03;;;26.50;99.10;;;;;;5041874;28;20318;-91
2021/05/20 08:18:31;;;;;;;2.03;1.52;;;27.30;95.70;;;;;;5067890;28;20219;-90
2021/05/20 08:20:57;;;;;;;2.03;1.63;;;26.10;97.30;;;;;;5050350;28;20682;-90
2021/05/20 08:23:23;;;;;;;3.92;2.08;;;25.80;97.20;;;;;;5067324;28;20189;-90
2021/05/20 08:25:49;;;;;;;2.50;2.30;;;24.30;97.80;;;;;;5035420;28;20259;-90
2021/05/20 08:28:16;;;;;;;2.35;2.00;;;24.00;99.90;;;;;;5036543;28;20331;-92
2021/05/20 08:30:42;;;;;;;2.35;2.00;;;25.40;97.60;;;;;;5040249;28;20229;-89
2021/05/20 08:33:08;;;;;;;2.47;2.28;;;25.80;97.30;;;;;;5050335;28;20241;-92
2021/05/20 08:35:34;;;;;;;4.00;2.67;;;27.20;98.20;;;;;;5034966;28;20190;-91
2021/05/20 08:38:01;;;;;;;1.77;1.67;;;27.70;95.50;;;;;;5055292;28;20538;-93
2021/05/20 08:40:27;;;;;;;2.75;2.40;;;25.00;96.80;;;;;;5067718;28;20221;-92
2021/05/20 08:42:53;;;;;;;3.80;2.50;;;22.00;99.90;;;;;;5051080;28;20218;-93
2021/05/20 08:45:28;;;;;;;2.40;2.20;;;21.30;99.90;;;;;;5069080;28;20226;-94
2021/05/20 08:47:55;;;;;;;3.92;2.00;;;20.40;99.90;;;;;;5052504;28;20221;-92
2021/05/20 08:50:23;;;;;;;4.00;2.70;;;20.00;99.90;;;;;;5049371;28;20214;-92
2021/05/20 08:52:50;;;;;;;2.40;2.20;;;21.20;99.90;;;;;;5049606;28;20228;-92
2021/05/20 08:55:24;;;;;;;2.10;1.73;;;20.40;99.90;;;;;;5053161;28;20217;-93
2021/05/20 08:57:50;;;;;;;1.77;1.67;;;20.90;99.90;;;;;;5065531;28;20466;-92
2021/05/20 09:00:19;;;;;;;2.53;2.30;;;19.50;99.90;;;;;;5046994;28;21496;-92
2021/05/20 09:02:46;;;;;;;2.30;2.10;;;20.00;99.90;;;;;;5051831;28;20204;-92
2021/05/20 09:05:22;;;;;;;2.37;2.17;;;21.80;99.90;;;;;;5053883;28;20598;-93
2021/05/20 09:07:52;;;;;;;3.67;1.80;;;22.20;99.90;;;;;;5016705;28;20697;-93
2021/05/20 09:10:19;;;;;;;1.73;1.63;;;23.00;99.90;;;;;;5049515;28;20240;-92
2021/05/20 09:12:48;;;;;;;2.07;1.97;;;22.50;99.90;;;;;;5070371;28;20212;-92
2021/05/20 09:15:15;;;;;;;2.33;2.13;;;21.80;99.90;;;;;;5071064;28;20216;-92
2021/05/20 09:17:42;;;;;;;2.17;2.00;;;22.50;99.90;;;;;;5052044;28;20192;-92
2021/05/20 09:20:08;;;;;;;2.97;2.20;;;24.50;99.90;;;;;;5055971;28;20197;-92
2021/05/20 09:22:35;;;;;;;1.92;1.65;;;25.90;99.90;;;;;;5052782;28;20212;-93
2021/05/20 09:25:03;;;;;;;2.28;1.73;;;25.10;96.20;;;;;;5058290;28;20316;-93
2021/05/20 09:27:41;;;;;;;2.05;1.77;;;24.30;99.90;;;;;;5043977;28;20235;-91
2021/05/20 09:30:15;;;;;;;2.50;2.03;;;24.50;99.90;;;;;;5034692;28;20241;-92
2021/05/20 09:32:53;;;;;;;1.90;1.80;;;24.20;99.50;;;;;;5047995;28;20178;-93
2021/05/20 09:35:44;;;;;;;1.00;1.00;;;24.30;99.90;;;;;;5066538;28;20212;-92
2021/05/20 09:38:19;;;;;;;1.30;1.20;;;23.70;98.80;;;;;;5042094;28;20687;-90
2021/05/20 09:40:56;;;;;;;1.00;1.00;;;23.50;98.20;;;;;;5048596;28;20240;-93
2021/05/20 09:43:27;;;;;;;1.95;1.40;;;23.80;96.80;;;;;;5051076;28;20305;-92
2021/05/20 09:45:56;;;;;;;2.45;1.67;;;25.30;97.80;;;;;;5049606;28;20244;-93
2021/05/20 09:48:27;;;;;;;2.58;1.58;;;25.80;97.60;;;;;;5041165;28;20252;-93
2021/05/20 09:50:55;;;;;;;1.40;1.30;;;24.80;99.10;;;;;;5049692;28;20214;-92
2021/05/20 09:53:22;;;;;;;2.60;1.63;;;26.00;96.90;;;;;;5053036;28;20300;-93
2021/05/20 09:55:53;;;;;;;2.67;1.70;;;25.40;96.30;;;;;;5049632;28;20324;-93
2021/05/20 09:58:25;;;;;;;2.55;1.70;;;23.00;98.40;;;;;;5031544;28;20300;-93
2021/05/20 10:00:51;;;;;;;2.97;2.00;;;21.90;99.90;;;;;;5051663;28;20249;-93
2021/05/20 10:03:20;;;;;;;2.25;2.05;;;21.40;99.90;;;;;;5047992;28;20213;-93
2021/05/20 10:05:47;;;;;;;1.83;1.73;;;21.80;99.90;;;;;;5047505;28;20210;-93
2021/05/20 10:08:18;;;;;;;3.33;1.60;;;20.70;99.90;;;;;;5051270;28;20281;-92
2021/05/20 10:10:46;;;;;;;2.57;1.90;;;19.30;99.90;;;;;;5042956;28;20212;-92
2021/05/20 10:13:15;;;;;;;2.87;1.77;;;19.10;99.90;;;;;;5049108;28;20876;-92
2021/05/20 10:15:41;;;;;;;1.83;1.70;;;19.60;99.90;;;;;;5051733;28;20739;-93
2021/05/20 10:18:17;;;;;;;2.13;1.40;;;20.40;99.90;;;;;;5049763;28;20210;-92
2021/05/20 10:20:45;;;;;;;5.70;1.43;;;21.30;99.90;;;;;;5049853;28;20186;-92
2021/05/20 10:23:13;;;;;;;1.33;1.23;;;22.80;99.90;;;;;;5044842;28;20211;-90
2021/05/20 10:25:41;;;;;;;1.90;1.23;;;24.00;99.90;;;;;;5044121;28;20234;-91
2021/05/20 10:28:10;;;;;;;4.60;1.50;;;24.00;98.70;;;;;;5044791;28;20691;-92
2021/05/20 10:30:38;;;;;;;1.77;1.30;;;22.80;97.80;;;;;;5044162;28;20689;-91
2021/05/20 10:33:05;;;;;;;1.40;1.30;;;22.60;99.50;;;;;;5061741;28;20242;-91
2021/05/20 10:35:50;;;;;;;0.83;0.83;;;22.80;99.30;;;;;;5045118;28;20197;-92
2021/05/20 10:38:30;;;;;;;1.53;1.43;;;22.70;97.20;;;;;;5047818;28;20244;-89
2021/05/20 10:41:18;;;;;;;1.00;0.90;;;22.20;99.40;;;;;;5046222;28;20221;-91
2021/05/20 10:44:08;;;;;;;0.83;0.83;;;21.60;98.70;;;;;;5046192;28;20248;-91
2021/05/20 10:47:07;;;;;;;1.30;1.20;;;21.70;99.90;;;;;;5045570;28;20221;-91
2021/05/20 10:49:52;;;;;;;2.50;1.30;;;21.50;99.10;;;;;;5043538;28;20230;-91
2021/05/20 10:52:39;;;;;;;2.40;1.17;;;22.10;98.20;;;;;;5048345;28;20333;-90
2021/05/20 10:55:10;;;;;;;1.57;1.40;;;21.80;97.20;;;;;;5064676;28;20243;-91
2021/05/20 10:58:01;;;;;;;2.40;1.10;;;21.50;99.30;;;;;;5066731;28;20225;-91
2021/05/20 11:00:44;;;;;;;2.47;1.00;;;21.30;98.90;;;;;;5033241;28;20212;-92
2021/05/20 11:03:11;;;;;;;0.90;0.90;;;21.20;98.90;;;;;;5065308;28;20259;-92
2021/05/20 11:05:43;;;;;;;1.20;1.10;;;21.70;97.30;;;;;;5030686;28;20212;-91
2021/05/20 11:08:10;;;;;;;0.87;0.87;;;21.20;98.00;;;;;;5048619;28;20808;-91
2021/05/20 11:10:37;;;;;;;4.80;1.30;;;21.10;97.80;;;;;;5065672;28;20231;-91
2021/05/20 11:13:04;;;;;;;1.30;1.13;;;21.00;98.90;;;;;;5050811;28;20209;-91
2021/05/20 11:15:30;;;;;;;2.13;1.20;;;21.00;98.80;;;;;;5046829;28;20745;-91
2021/05/20 11:18:34;;;;;;;2.70;1.77;;;21.80;99.40;;;;;;5048586;28;20311;-91
2021/05/20 11:21:00;;;;;;;2.13;1.60;;;21.60;98.50;;;;;;5045141;28;20215;-92
2021/05/20 11:23:28;;;;;;;1.53;1.43;;;21.50;98.40;;;;;;5035933;28;20208;-89
2021/05/20 11:26:05;;;;;;;2.57;2.20;;;21.50;98.70;;;;;;5033490;28;20766;-91
2021/05/20 11:28:51;;;;;;;1.87;1.70;;;20.80;99.70;;;;;;5047323;28;20225;-91
2021/05/20 11:31:18;;;;;;;1.87;1.60;;;20.80;99.90;;;;;;5049788;28;20217;-92
2021/05/20 11:33:56;;;;;;;4.23;1.60;;;20.90;98.60;;;;;;5047373;28;20945;-92
2021/05/20 11:36:22;;;;;;;2.40;2.20;;;20.20;99.90;;;;;;5065405;28;20256;-92
2021/05/20 11:39:05;;;;;;;2.33;1.60;;;19.90;99.90;;;;;;5045502;28;20237;-88
2021/05/20 11:41:30;;;;;;;3.30;1.70;;;19.80;99.90;;;;;;5049864;28;20192;-88
2021/05/20 11:44:05;;;;;;;1.77;1.37;;;20.40;99.80;;;;;;5035417;28;20197;-92
2021/05/20 11:46:31;;;;;;;2.70;1.77;;;20.00;99.90;;;;;;5054015;28;20220;-91
2021/05/20 11:48:58;;;;;;;2.37;1.70;;;20.00;99.90;;;;;;5060515;28;20216;-88
2021/05/20 11:51:43;;;;;;;1.90;1.67;;;19.50;99.90;;;;;;5051592;28;20605;-89
2021/05/20 11:54:13;;;;;;;2.03;1.63;;;19.10;99.90;;;;;;5053530;28;20229;-89
2021/05/20 11:56:41;;;;;;;1.90;1.60;;;19.40;99.90;;;;;;5052566;28;20243;-90
2021/05/20 11:59:07;;;;;;;2.63;1.97;;;19.60;99.90;;;;;;5053145;28;20181;-89
2021/05/20 12:01:34;;;;;;;2.30;2.10;;;19.50;99.90;;;;;;5049741;28;20417;-89
2021/05/20 12:04:09;;;;;;;2.13;1.93;;;20.10;99.90;;;;;;5052850;28;20266;-89
2021/05/20 12:06:36;;;;;;;3.30;2.17;;;20.40;99.90;;;;;;5050543;28;20310;-89
2021/05/20 12:09:09;;;;;;;2.40;2.20;;;19.90;99.90;;;;;;5033500;28;20221;-89
2021/05/20 12:11:35;;;;;;;3.30;2.30;;;20.00;99.90;;;;;;5055905;28;20189;-89
2021/05/20 12:14:01;;;;;;;3.13;2.20;;;20.00;99.90;;;;;;5052847;28;20177;-89
2021/05/20 12:16:32;;;;;;;4.60;2.30;;;19.60;99.90;;;;;;5036178;28;20214;-89
2021/05/20 12:18:59;;;;;;;3.47;2.50;;;19.50;99.90;;;;;;5054618;28;20228;-90
2021/05/20 12:21:26;;;;;;;4.20;2.77;;;19.30;99.90;;;;;;5054352;28;20225;-87
2021/05/20 12:23:56;;;;;;;2.60;2.40;;;19.30;99.90;;;;;;5052490;28;20225;-86
2021/05/20 12:26:29;;;;;;;4.37;2.70;;;19.50;99.90;;;;;;5053635;28;20316;-87
2021/05/20 12:28:56;;;;;;;4.30;3.07;;;18.90;99.90;;;;;;5051975;28;20209;-87
2021/05/20 12:31:22;;;;;;;5.40;3.90;;;18.80;99.90;;;;;;5034699;28;20296;-87
2021/05/20 12:33:48;;;;;;;4.43;3.97;;;18.70;99.90;;;;;;5027705;28;20233;-89
2021/05/20 12:36:35;;;;;;;4.70;3.90;;;18.50;99.90;;;;;;5016316;28;20222;-88
2021/05/20 12:39:02;;;;;;;9.30;4.50;;;18.30;99.90;;;;;;5045283;28;20240;-89
2021/05/20 12:41:36;;;;;;;5.73;4.30;;;18.20;99.90;;;;;;5025067;28;20244;-88
2021/05/20 12:44:17;;;;;;;5.93;4.10;;;18.30;99.90;;;;;;5056121;28;20593;-87
2021/05/20 12:46:43;;;;;;;7.47;4.60;;;18.30;99.90;;;;;;5057204;28;20221;-88
2021/05/20 12:49:09;;;;;;;4.20;3.80;;;18.30;99.90;;;;;;5071964;28;20220;-88
2021/05/20 12:51:35;;;;;;;6.90;4.13;;;18.70;99.90;;;;;;5054214;28;20212;-88
2021/05/20 12:54:07;;;;;;;6.10;5.10;;;19.10;99.90;;;;;;5036394;28;20607;-88
2021/05/20 12:56:38;;;;;;;6.90;5.27;;;18.60;99.90;;;;;;5052059;28;20276;-88
2021/05/20 12:59:10;;;;;;;5.57;4.83;;;18.10;99.90;;;;;;5053938;28;20185;-88
2021/05/20 13:01:50;;;;;;;5.47;4.97;;;18.60;99.90;;;;;;5071208;28;20217;-89